createdAt,value
2022-11-12T00:04:39.113Z,46.57
2022-11-12T00:09:44.877Z,43.87
2022-11-12T00:14:50.317Z,43.60
2022-11-12T00:19:55.970Z,43.63
2022-11-12T00:25:01.084Z,43.93
2022-11-12T00:30:07.350Z,43.37
2022-11-12T00:40:19.632Z,42.27
2022-11-12T00:45:25.416Z,42.60
2022-11-12T00:50:30.433Z,41.30
2022-11-12T00:55:35.301Z,42.37
2022-11-12T01:00:40.584Z,42.83
2022-11-12T01:05:45.445Z,43.33
2022-11-12T01:10:50.844Z,42.10
2022-11-12T01:15:56.280Z,44.00
2022-11-12T01:21:06.077Z,42.37
2022-11-12T01:26:13.887Z,41.77
2022-11-12T01:31:21.660Z,41.83
2022-11-12T01:36:27.928Z,41.63
2022-11-12T01:41:35.412Z,40.55
2022-11-12T01:47:12.674Z,41.17
2022-11-12T01:52:45.336Z,42.15
2022-11-12T01:57:54.864Z,41.13
2022-11-12T02:03:02.701Z,42.30
2022-11-12T02:08:10.569Z,44.23
2022-11-12T02:13:33.392Z,43.30
2022-11-12T02:18:38.761Z,42.40
2022-11-12T02:23:43.630Z,42.23
2022-11-12T02:28:48.495Z,41.97
2022-11-12T02:33:54.319Z,41.00
2022-11-12T02:39:00.134Z,41.27
2022-11-12T02:44:05.165Z,40.07
2022-11-12T02:49:10.527Z,41.33
2022-11-12T02:54:16.321Z,41.17
2022-11-12T02:59:21.565Z,40.78
2022-11-12T03:04:26.700Z,41.25
2022-11-12T03:09:31.965Z,40.30
2022-11-12T03:14:37.486Z,41.27
2022-11-12T03:19:43.011Z,41.13
2022-11-12T03:24:48.829Z,42.20
2022-11-12T03:29:54.225Z,39.87
2022-11-12T03:34:59.743Z,40.93
2022-11-12T03:40:05.199Z,40.43
2022-11-12T03:45:10.928Z,40.20
2022-11-12T03:50:19.194Z,40.63
2022-11-12T03:55:25.750Z,40.30
2022-11-12T04:00:32.002Z,40.15
2022-11-12T04:05:54.665Z,41.97
2022-11-12T04:10:59.973Z,40.43
2022-11-12T04:16:29.443Z,40.47
2022-11-12T04:21:52.781Z,43.20
2022-11-12T04:26:57.852Z,41.83
2022-11-12T04:32:04.201Z,43.03
2022-11-12T04:37:10.301Z,40.73
2022-11-12T04:42:33.433Z,40.63
2022-11-12T04:47:40.895Z,39.87
2022-11-12T04:52:47.008Z,39.70
2022-11-12T04:57:56.169Z,40.25
2022-11-12T05:08:04.227Z,39.37
2022-11-12T05:13:09.239Z,40.40
2022-11-12T05:18:15.520Z,39.98
2022-11-12T05:23:21.220Z,39.18
2022-11-12T05:28:26.396Z,40.43
2022-11-12T05:33:32.245Z,39.33
2022-11-12T05:38:38.739Z,40.60
2022-11-12T05:43:44.928Z,40.90
2022-11-12T05:48:50.364Z,39.27
2022-11-12T05:53:57.137Z,40.97
2022-11-12T05:59:04.169Z,41.17
2022-11-12T06:04:12.193Z,43.03
2022-11-12T06:09:17.470Z,42.30
2022-11-12T06:14:22.346Z,41.47
2022-11-12T06:19:27.519Z,41.83
2022-11-12T06:24:35.418Z,40.23
2022-11-12T06:29:39.657Z,41.00
2022-11-12T06:34:44.543Z,40.10
2022-11-12T06:39:51.552Z,46.68
2022-11-12T06:44:57.618Z,46.88
2022-11-12T06:50:02.510Z,50.20
2022-11-12T06:55:09.340Z,51.87
2022-11-12T07:00:15.172Z,55.47
2022-11-12T07:05:20.604Z,49.43
2022-11-12T07:10:26.103Z,50.78
2022-11-12T07:15:31.592Z,47.03
2022-11-12T07:20:37.731Z,47.27
2022-11-12T07:25:43.320Z,45.00
2022-11-12T07:30:49.281Z,46.77
2022-11-12T07:36:00.735Z,47.53
2022-11-12T07:41:08.736Z,48.20
2022-11-12T07:46:16.031Z,51.80
2022-11-12T07:51:26.162Z,56.40
2022-11-12T07:56:31.541Z,57.40
2022-11-12T08:01:39.321Z,54.93
2022-11-12T08:06:44.930Z,54.43
2022-11-12T08:11:49.848Z,53.63
2022-11-12T08:16:54.815Z,53.90
2022-11-12T08:21:59.695Z,55.53
2022-11-12T08:27:05.015Z,53.73
2022-11-12T08:32:11.486Z,54.90
2022-11-12T08:37:16.662Z,54.97
2022-11-12T08:42:22.432Z,52.75
2022-11-12T08:47:27.622Z,52.87
2022-11-12T08:52:32.524Z,53.30
2022-11-12T08:57:44.354Z,53.33
2022-11-12T09:02:49.612Z,55.00
2022-11-12T09:08:11.011Z,56.37
2022-11-12T09:13:17.303Z,54.63
2022-11-12T09:23:27.560Z,55.90
2022-11-12T09:28:33.223Z,54.23
2022-11-12T09:33:38.592Z,55.38
2022-11-12T09:38:43.941Z,52.47
2022-11-12T09:43:54.404Z,51.90
2022-11-12T09:49:15.397Z,51.03
2022-11-12T09:54:34.142Z,51.98
2022-11-12T09:59:42.217Z,52.07
2022-11-12T10:04:53.285Z,51.83
2022-11-12T10:10:14.332Z,53.57
2022-11-12T10:15:42.606Z,52.70
2022-11-12T10:21:05.646Z,52.23
2022-11-12T10:26:16.494Z,51.07
2022-11-12T10:31:22.970Z,51.43
2022-11-12T10:36:34.937Z,51.93
2022-11-12T10:41:40.252Z,52.53
2022-11-12T10:46:45.175Z,51.80
2022-11-12T10:51:59.288Z,51.65
2022-11-12T10:57:24.989Z,51.20
2022-11-12T11:02:31.531Z,52.15
2022-11-12T11:07:36.981Z,51.20
2022-11-12T11:12:42.548Z,50.70
2022-11-12T11:17:47.579Z,51.57
2022-11-12T11:22:57.546Z,51.73
2022-11-12T11:28:33.926Z,51.27
2022-11-12T11:33:48.308Z,52.10
2022-11-12T11:39:02.465Z,52.33
2022-11-12T11:44:16.594Z,52.13
2022-11-12T11:49:37.016Z,51.67
2022-11-12T11:55:09.185Z,51.70
2022-11-12T12:00:25.629Z,52.40
2022-11-12T12:05:48.719Z,53.33
2022-11-12T12:11:08.078Z,53.20
2022-11-12T12:16:26.731Z,53.03
2022-11-12T12:21:34.341Z,53.77
2022-11-12T12:26:47.913Z,54.00
2022-11-12T12:31:58.538Z,58.27
2022-11-12T12:37:06.613Z,57.10
2022-11-12T12:42:18.397Z,54.80
2022-11-12T12:47:23.812Z,54.60
2022-11-12T12:57:36.209Z,54.45
2022-11-12T13:02:41.176Z,54.27
2022-11-12T13:07:49.371Z,54.47
2022-11-12T13:13:21.566Z,53.63
2022-11-12T13:18:42.204Z,53.57
2022-11-12T13:24:07.230Z,52.93
2022-11-12T13:29:34.026Z,53.93
2022-11-12T13:34:39.955Z,53.65
2022-11-12T13:39:46.260Z,53.80
2022-11-12T13:44:56.081Z,53.67
2022-11-12T13:50:01.810Z,53.93
2022-11-12T13:55:09.598Z,53.57
2022-11-12T14:00:24.095Z,53.23
2022-11-12T14:05:38.709Z,53.08
2022-11-12T14:10:46.626Z,53.63
2022-11-12T14:16:01.305Z,54.07
2022-11-12T14:21:10.629Z,54.10
2022-11-12T14:26:18.429Z,53.83
2022-11-12T14:31:26.184Z,53.43
2022-11-12T14:36:31.898Z,54.37
2022-11-12T14:41:40.814Z,52.83
2022-11-12T14:46:54.096Z,55.30
2022-11-12T14:52:10.628Z,55.40
2022-11-12T14:57:19.456Z,55.55
2022-11-12T15:02:58.921Z,54.77
2022-11-12T15:08:03.558Z,55.33
2022-11-12T15:13:14.594Z,54.50
2022-11-12T15:18:22.859Z,54.33
2022-11-12T15:23:28.504Z,58.63
2022-11-12T15:28:34.414Z,61.10
2022-11-12T15:33:39.312Z,77.60
2022-11-12T15:38:49.480Z,78.43
2022-11-12T15:43:54.915Z,65.93
2022-11-12T15:48:59.851Z,58.00
2022-11-12T15:54:06.217Z,54.10
2022-11-12T15:59:19.541Z,54.00
2022-11-12T16:04:25.173Z,54.10
2022-11-12T16:09:30.248Z,54.87
2022-11-12T16:14:36.981Z,53.53
2022-11-12T16:19:42.396Z,52.70
2022-11-12T16:24:47.402Z,54.30
2022-11-12T16:29:52.581Z,54.83
2022-11-12T16:35:01.320Z,54.33
2022-11-12T16:40:06.815Z,56.43
2022-11-12T16:45:13.620Z,55.63
2022-11-12T16:55:25.132Z,54.80
2022-11-12T17:00:31.336Z,54.60
2022-11-12T17:05:36.882Z,54.13
2022-11-12T17:10:42.741Z,52.00
2022-11-12T17:15:48.088Z,50.07
2022-11-12T17:20:53.888Z,63.27
2022-11-12T17:26:04.822Z,213.03
2022-11-12T17:31:13.539Z,166.43
2022-11-12T17:36:21.400Z,84.87
2022-11-12T17:41:30.463Z,72.07
2022-11-12T17:46:36.578Z,61.83
2022-11-12T17:51:41.978Z,54.93
2022-11-12T17:56:47.158Z,55.30
2022-11-12T18:01:52.914Z,55.07
2022-11-12T18:06:58.132Z,56.97
2022-11-12T18:12:03.246Z,55.50
2022-11-12T18:17:09.280Z,56.42
2022-11-12T18:22:16.389Z,52.63
2022-11-12T18:27:21.656Z,52.27
2022-11-12T18:32:27.217Z,55.23
2022-11-12T18:37:32.652Z,66.10
2022-11-12T18:42:37.673Z,85.20
2022-11-12T18:47:43.283Z,55.92
2022-11-12T18:52:48.153Z,79.67
2022-11-12T18:57:54.018Z,146.50
2022-11-12T19:02:59.603Z,110.13
2022-11-12T19:08:04.671Z,53.87
2022-11-12T19:13:09.576Z,51.73
2022-11-12T19:18:15.650Z,50.67
2022-11-12T19:23:21.210Z,55.53
2022-11-12T19:28:27.700Z,61.85
2022-11-12T19:33:33.128Z,96.33
2022-11-12T19:38:39.134Z,88.73
2022-11-12T19:43:44.521Z,75.60
2022-11-12T19:48:50.097Z,71.47
2022-11-12T19:53:55.415Z,76.03
2022-11-12T19:59:00.787Z,72.63
2022-11-12T20:04:06.453Z,58.20
2022-11-12T20:09:11.814Z,63.77
2022-11-12T20:14:17.332Z,61.60
2022-11-12T20:19:22.522Z,57.78
2022-11-12T20:24:28.942Z,59.43
2022-11-12T20:29:34.385Z,58.67
2022-11-12T20:34:39.642Z,57.60
2022-11-12T20:39:45.775Z,57.53
2022-11-12T20:44:51.860Z,57.65
2022-11-12T20:49:57.712Z,54.40
2022-11-12T20:55:02.874Z,57.43
2022-11-12T21:00:13.495Z,56.00
2022-11-12T21:05:15.551Z,55.47
2022-11-12T21:10:21.075Z,55.78
2022-11-12T21:15:26.291Z,50.25
2022-11-12T21:20:31.221Z,51.80
2022-11-12T21:25:37.262Z,56.97
2022-11-12T21:30:42.175Z,57.33
2022-11-12T21:35:54.562Z,59.83
2022-11-12T21:41:07.529Z,57.90
2022-11-12T21:46:27.194Z,60.37
2022-11-12T21:51:33.702Z,59.10
2022-11-12T21:56:40.578Z,59.08
2022-11-12T22:01:47.009Z,58.83
2022-11-12T22:06:52.495Z,56.30
2022-11-12T22:11:58.215Z,54.10
2022-11-12T22:17:03.728Z,52.70
2022-11-12T22:22:09.274Z,54.03
2022-11-12T22:27:14.568Z,67.97
2022-11-12T22:32:19.769Z,72.37
2022-11-12T22:37:25.251Z,54.43
2022-11-12T22:42:30.540Z,52.27
2022-11-12T22:47:39.380Z,51.50
2022-11-12T22:52:50.004Z,51.93
2022-11-12T22:57:51.648Z,52.07
2022-11-12T23:02:56.710Z,53.20
2022-11-12T23:08:01.612Z,57.57
2022-11-12T23:13:06.641Z,52.80
2022-11-12T23:18:12.516Z,51.57
2022-11-12T23:23:17.955Z,36.83
2022-11-12T23:28:23.300Z,51.50
2022-11-12T23:33:28.731Z,52.40
2022-11-12T23:38:33.783Z,51.50
2022-11-12T23:43:38.879Z,53.50
2022-11-12T23:48:44.628Z,49.43
2022-11-12T23:53:50.742Z,50.92
2022-11-12T23:58:55.896Z,49.23
